Time;durP1;ratioP1;P1;durP2;ratioP2;P2;SDS_P1;SDS_P2;PMS_P1;PMS_P2;Temp;Humidity;BMP_temperature;BMP_pressure;BME280_temperature;BME280_humidity;BME280_pressure;Samples;Min_cycle;Max_cycle;Signal;HPM_P1;HPM_P2
2022/05/24 00:00:23;;;;;;;;;;;;;;;22.64;31.71;101168.78;2075095;28;765;-61
2022/05/24 00:01:23;;;;;;;;;;;;;;;22.64;31.12;101159.81;2075635;28;977;-61
2022/05/24 00:02:23;;;;;;;;;;;;;;;22.63;31.43;101158.94;2075604;28;1882;-61
2022/05/24 00:03:23;;;;;;;;;;;;;;;22.64;31.49;101160.69;2075641;28;989;-61
2022/05/24 00:04:23;;;;;;;;;;;;;;;22.63;31.12;101161.63;2075726;28;623;-61
2022/05/24 00:05:24;;;;;;;;;;;;;;;22.62;30.93;101159.88;2075038;28;772;-61
2022/05/24 00:06:29;;;;;;;;;;;;;;;22.62;31.93;101159.88;2075012;28;792;-61
2022/05/24 00:07:30;;;;;;;;;;;;;;;22.61;31.31;101160.81;2075596;28;874;-61
2022/05/24 00:08:30;;;;;;;;;;;;;;;22.60;31.96;101161.75;2075608;28;854;-61
2022/05/24 00:09:30;;;;;;;;;;;;;;;22.60;31.27;101164.44;2075548;28;843;-61
2022/05/24 00:10:31;;;;;;;;;;;;;;;22.59;31.29;101165.38;2075573;28;859;-61
2022/05/24 00:11:32;;;;;;;;;;;;;;;22.59;31.96;101168.06;2075521;28;828;-61
2022/05/24 00:12:32;;;;;;;;;;;;;;;22.59;31.44;101164.50;2075580;28;916;-61
2022/05/24 00:13:32;;;;;;;;;;;;;;;22.58;31.79;101165.44;2077622;28;721;-61
2022/05/24 00:15:51;;;;;;;;;;;;;;;22.57;32.22;101169.94;2075600;28;610;-61
2022/05/24 00:16:51;;;;;;;;;;;;;;;22.56;31.33;101167.31;2075549;28;1312;-61
2022/05/24 00:17:54;;;;;;;;;;;;;;;22.55;31.49;101165.56;2075402;28;1085;-61
2022/05/24 00:18:54;;;;;;;;;;;;;;;22.55;32.22;101166.41;2075510;28;859;-61
2022/05/24 00:19:54;;;;;;;;;;;;;;;22.53;31.42;101170.13;2075529;28;902;-61
2022/05/24 00:20:59;;;;;;;;;;;;;;;22.52;31.77;101161.13;2075463;28;899;-61
2022/05/24 00:21:59;;;;;;;;;;;;;;;22.51;31.40;101167.47;2075415;28;1965;-61
2022/05/24 00:22:59;;;;;;;;;;;;;;;22.52;31.62;101160.28;2075441;28;930;-61
2022/05/24 00:23:59;;;;;;;;;;;;;;;22.51;31.76;101162.06;2075481;28;848;-62
2022/05/24 00:25:01;;;;;;;;;;;;;;;22.50;31.46;101166.59;2075473;28;768;-61
2022/05/24 00:26:03;;;;;;;;;;;;;;;22.49;31.55;101158.53;2075430;28;792;-61
2022/05/24 00:27:03;;;;;;;;;;;;;;;22.49;31.44;101163.94;2075391;28;910;-61
2022/05/24 00:28:05;;;;;;;;;;;;;;;22.49;31.77;101161.25;2076030;28;1040;-61
2022/05/24 00:29:05;;;;;;;;;;;;;;;22.50;31.97;101163.00;2075415;28;969;-61
2022/05/24 00:30:06;;;;;;;;;;;;;;;22.49;32.26;101162.16;2075477;28;985;-61
2022/05/24 00:31:06;;;;;;;;;;;;;;;22.48;31.90;101167.59;2074666;28;752;-61
2022/05/24 00:32:06;;;;;;;;;;;;;;;22.47;31.54;101158.63;2075169;28;856;-61
2022/05/24 00:33:07;;;;;;;;;;;;;;;22.47;31.56;101160.41;2075383;28;1017;-61
2022/05/24 00:34:07;;;;;;;;;;;;;;;22.46;32.36;101158.66;2075383;28;838;-61
2022/05/24 00:35:07;;;;;;;;;;;;;;;22.46;32.55;101155.97;2075406;28;1029;-61
2022/05/24 00:36:08;;;;;;;;;;;;;;;22.45;31.70;101152.41;2075317;28;788;-61
2022/05/24 00:37:08;;;;;;;;;;;;;;;22.45;31.93;101156.91;2075317;28;1212;-61
2022/05/24 00:38:10;;;;;;;;;;;;;;;22.45;31.72;101159.59;2075346;28;1021;-61
2022/05/24 00:39:10;;;;;;;;;;;;;;;22.45;31.57;101157.78;2075468;28;812;-61
2022/05/24 00:40:17;;;;;;;;;;;;;;;22.44;32.26;101155.13;2075346;28;868;-60
2022/05/24 00:41:25;;;;;;;;;;;;;;;22.45;31.67;101154.19;2075877;28;879;-60
2022/05/24 00:42:27;;;;;;;;;;;;;;;22.43;32.44;101154.22;2075287;28;1961;-60
2022/05/24 00:43:27;;;;;;;;;;;;;;;22.44;32.19;101152.44;2075314;28;667;-61
2022/05/24 00:44:29;;;;;;;;;;;;;;;22.43;32.64;101161.44;2075276;28;784;-61
2022/05/24 00:45:31;;;;;;;;;;;;;;;22.43;32.43;101165.03;2075318;28;981;-61
2022/05/24 00:46:37;;;;;;;;;;;;;;;22.43;32.33;101166.84;2075285;28;954;-61
2022/05/24 00:47:48;;;;;;;;;;;;;;;22.43;32.24;101158.72;2075259;28;911;-61
2022/05/24 00:48:52;;;;;;;;;;;;;;;22.43;32.28;101169.53;2075358;28;938;-61
2022/05/24 00:49:56;;;;;;;;;;;;;;;22.43;31.92;101164.13;2075260;28;889;-61
2022/05/24 00:50:56;;;;;;;;;;;;;;;22.41;31.90;101160.59;2075229;28;803;-61
2022/05/24 00:52:07;;;;;;;;;;;;;;;22.42;31.86;101159.66;2075268;28;946;-62
2022/05/24 00:53:08;;;;;;;;;;;;;;;22.41;32.23;101152.50;2074471;28;1513;-61
2022/05/24 00:54:09;;;;;;;;;;;;;;;22.40;32.53;101154.34;2074655;28;772;-61
2022/05/24 00:55:11;;;;;;;;;;;;;;;22.39;32.02;101159.78;2075228;28;1029;-61
2022/05/24 00:56:14;;;;;;;;;;;;;;;22.40;32.59;101158.84;2075078;28;1919;-61
2022/05/24 00:57:17;;;;;;;;;;;;;;;22.40;32.57;101164.25;2075173;28;993;-61
2022/05/24 00:58:24;;;;;;;;;;;;;;;22.39;32.05;101157.06;2075192;28;989;-61
2022/05/24 00:59:46;;;;;;;;;;;;;;;22.39;31.97;101165.19;2076862;28;878;-61
2022/05/24 01:00:46;;;;;;;;;;;;;;;22.38;32.01;101155.31;2075189;28;993;-61
2022/05/24 01:01:47;;;;;;;;;;;;;;;22.37;32.01;101149.06;2074410;28;1894;-61
2022/05/24 01:02:48;;;;;;;;;;;;;;;22.38;32.07;101149.91;2074534;28;788;-61
2022/05/24 01:03:48;;;;;;;;;;;;;;;22.36;31.99;101148.19;2075190;28;819;-60
2022/05/24 01:04:49;;;;;;;;;;;;;;;22.36;32.20;101153.59;2075163;28;970;-61
2022/05/24 01:05:49;;;;;;;;;;;;;;;22.36;32.39;101148.19;2075176;28;784;-61
2022/05/24 01:06:49;;;;;;;;;;;;;;;22.36;32.89;101150.88;2074469;28;1377;-61
2022/05/24 01:07:49;;;;;;;;;;;;;;;22.36;32.11;101156.28;2074532;28;784;-61
2022/05/24 01:08:50;;;;;;;;;;;;;;;22.36;32.73;101153.59;2075168;28;875;-61
2022/05/24 01:09:54;;;;;;;;;;;;;;;22.35;32.59;101151.81;2075118;28;970;-61
2022/05/24 01:10:55;;;;;;;;;;;;;;;22.35;32.17;101156.31;2075084;28;772;-61
2022/05/24 01:11:58;;;;;;;;;;;;;;;22.35;32.06;101156.31;2075067;28;1049;-60
2022/05/24 01:12:58;;;;;;;;;;;;;;;22.33;33.02;101148.28;2075062;28;978;-61
2022/05/24 01:14:00;;;;;;;;;;;;;;;22.33;32.24;101153.69;2075089;28;962;-61
2022/05/24 01:15:02;;;;;;;;;;;;;;;22.35;32.19;101150.94;2075059;28;776;-61
2022/05/24 01:16:02;;;;;;;;;;;;;;;22.34;32.67;101147.38;2075073;28;816;-61
2022/05/24 01:17:03;;;;;;;;;;;;;;;22.35;32.33;101154.53;2075253;28;1309;-61
2022/05/24 01:18:03;;;;;;;;;;;;;;;22.36;32.36;101155.38;2075052;28;883;-61
2022/05/24 01:19:05;;;;;;;;;;;;;;;22.35;32.79;101151.81;2075041;28;937;-61
2022/05/24 01:20:05;;;;;;;;;;;;;;;22.35;32.33;101154.53;2075103;28;807;-61
2022/05/24 01:21:08;;;;;;;;;;;;;;;22.35;32.27;101157.22;2075018;28;981;-61
2022/05/24 01:22:20;;;;;;;;;;;;;;;22.36;32.54;101152.69;2074993;28;1914;-61
2022/05/24 01:23:43;;;;;;;;;;;;;;;22.35;33.05;101154.53;2075032;28;819;-61
2022/05/24 01:25:00;;;;;;;;;;;;;;;22.34;32.92;101150.06;2075007;28;843;-61
2022/05/24 01:26:09;;;;;;;;;;;;;;;22.34;32.27;101160.84;2075030;28;981;-61
2022/05/24 01:27:09;;;;;;;;;;;;;;;22.33;32.84;101153.69;2075014;28;997;-61
2022/05/24 01:28:16;;;;;;;;;;;;;;;22.33;32.69;101152.78;2074984;28;799;-62
2022/05/24 01:29:17;;;;;;;;;;;;;;;22.33;32.34;101155.50;2074996;28;973;-61
2022/05/24 01:30:18;;;;;;;;;;;;;;;22.33;32.91;101155.50;2074952;28;1049;-61
2022/05/24 01:31:18;;;;;;;;;;;;;;;22.32;32.41;101149.22;2074978;28;808;-61
2022/05/24 01:36:16;;;;;;;;;;;;;;;22.32;33.13;101146.53;2075076;28;607;-61
2022/05/24 01:37:17;;;;;;;;;;;;;;;22.32;32.70;101153.72;2074959;28;744;-61
2022/05/24 01:38:19;;;;;;;;;;;;;;;22.32;32.50;101151.03;2074987;28;958;-61
2022/05/24 01:39:19;;;;;;;;;;;;;;;22.32;32.68;101149.22;2074971;28;911;-61
2022/05/24 01:40:19;;;;;;;;;;;;;;;22.33;32.49;101150.09;2074879;28;990;-61
2022/05/24 01:41:21;;;;;;;;;;;;;;;22.32;32.91;101151.94;2074923;28;760;-61
2022/05/24 01:42:22;;;;;;;;;;;;;;;22.32;33.20;101156.44;2074553;28;1890;-61
2022/05/24 01:43:24;;;;;;;;;;;;;;;22.31;33.40;101142.06;2074891;28;1033;-61
2022/05/24 01:44:33;;;;;;;;;;;;;;;22.32;32.47;101154.63;2074908;28;784;-61
2022/05/24 01:45:36;;;;;;;;;;;;;;;22.31;32.96;101154.66;2074869;28;1045;-61
2022/05/24 01:46:38;;;;;;;;;;;;;;;22.30;32.84;101158.31;2074914;28;783;-61
2022/05/24 01:47:39;;;;;;;;;;;;;;;22.31;32.78;101155.56;2074861;28;788;-61
2022/05/24 01:48:42;;;;;;;;;;;;;;;22.29;33.39;101154.75;2074866;28;769;-60
2022/05/24 01:49:46;;;;;;;;;;;;;;;22.30;32.99;101159.19;2075146;28;957;-61
2022/05/24 01:50:48;;;;;;;;;;;;;;;22.30;33.42;101159.19;2075717;28;882;-61
2022/05/24 01:51:52;;;;;;;;;;;;;;;22.30;32.77;101155.59;2074882;28;982;-61
2022/05/24 01:52:54;;;;;;;;;;;;;;;22.30;32.91;101150.22;2074744;28;1594;-61
2022/05/24 01:53:57;;;;;;;;;;;;;;;22.31;32.65;101155.56;2074808;28;993;-61
2022/05/24 01:55:19;;;;;;;;;;;;;;;22.29;32.63;101143.94;2074794;28;882;-61
2022/05/24 01:56:22;;;;;;;;;;;;;;;22.31;32.61;101142.06;2074835;28;1064;-61
2022/05/24 01:57:25;;;;;;;;;;;;;;;22.29;33.31;101143.94;2074837;28;985;-61
2022/05/24 01:58:27;;;;;;;;;;;;;;;22.30;33.39;101143.00;2074755;28;859;-61
2022/05/24 01:59:27;;;;;;;;;;;;;;;22.30;33.50;101151.09;2074796;28;866;-61
2022/05/24 02:00:27;;;;;;;;;;;;;;;22.30;32.81;101145.72;2074812;28;996;-61
2022/05/24 02:01:35;;;;;;;;;;;;;;;22.28;33.01;101142.19;2074758;28;779;-62
2022/05/24 02:02:35;;;;;;;;;;;;;;;22.29;33.43;101141.25;2074781;28;780;-61
2022/05/24 02:03:35;;;;;;;;;;;;;;;22.28;33.35;101138.59;2074802;28;978;-61
2022/05/24 02:04:36;;;;;;;;;;;;;;;22.29;32.86;101135.84;2074769;28;1048;-61
2022/05/24 02:05:38;;;;;;;;;;;;;;;22.29;32.92;101134.94;2074751;28;891;-61
2022/05/24 02:06:38;;;;;;;;;;;;;;;22.29;33.46;101132.25;2074763;28;815;-61
2022/05/24 02:07:39;;;;;;;;;;;;;;;22.30;32.83;101139.41;2074798;28;847;-61
2022/05/24 02:08:39;;;;;;;;;;;;;;;22.29;33.06;101141.25;2074751;28;791;-61
2022/05/24 02:09:44;;;;;;;;;;;;;;;22.29;33.58;101135.84;2074762;28;859;-61
2022/05/24 02:10:55;;;;;;;;;;;;;;;22.28;33.26;101131.38;2074790;28;966;-61
2022/05/24 02:11:58;;;;;;;;;;;;;;;22.29;32.94;101133.16;2074769;28;807;-61
2022/05/24 02:13:00;;;;;;;;;;;;;;;22.29;33.63;101129.56;2074712;28;894;-61
2022/05/24 02:14:00;;;;;;;;;;;;;;;22.29;32.83;101126.84;2074764;28;800;-61
2022/05/24 02:15:04;;;;;;;;;;;;;;;22.28;33.63;101133.19;2074722;28;874;-61
2022/05/24 02:16:08;;;;;;;;;;;;;;;22.28;33.15;101134.09;2074814;28;803;-61
2022/05/24 02:17:12;;;;;;;;;;;;;;;22.28;33.69;101130.50;2074517;28;1083;-61
2022/05/24 02:18:14;;;;;;;;;;;;;;;22.28;33.28;101127.78;2074737;28;1162;-61
2022/05/24 02:19:15;;;;;;;;;;;;;;;22.26;33.72;101127.88;2074835;28;705;-61
2022/05/24 02:20:19;;;;;;;;;;;;;;;22.25;33.78;101130.59;2074689;28;894;-61
2022/05/24 02:21:21;;;;;;;;;;;;;;;22.27;33.71;101123.34;2074684;28;922;-61
2022/05/24 02:22:23;;;;;;;;;;;;;;;22.26;33.30;101133.25;2074624;28;1973;-61
2022/05/24 02:23:23;;;;;;;;;;;;;;;22.27;33.25;101129.63;2074849;28;902;-61
2022/05/24 02:24:24;;;;;;;;;;;;;;;22.27;32.98;101132.31;2074821;28;894;-61
2022/05/24 02:25:24;;;;;;;;;;;;;;;22.28;33.77;101130.50;2074677;28;993;-61
2022/05/24 02:26:26;;;;;;;;;;;;;;;22.27;33.05;101129.63;2074779;28;994;-61
2022/05/24 02:27:26;;;;;;;;;;;;;;;22.27;33.77;101129.63;2074683;28;824;-61
2022/05/24 02:28:29;;;;;;;;;;;;;;;22.27;33.55;101129.63;2074658;28;855;-61
2022/05/24 02:29:31;;;;;;;;;;;;;;;22.27;33.12;101129.63;2074647;28;887;-62
2022/05/24 02:30:31;;;;;;;;;;;;;;;22.27;33.40;101134.13;2074666;28;940;-61
2022/05/24 02:31:32;;;;;;;;;;;;;;;22.27;33.48;101135.03;2074663;28;855;-61
2022/05/24 02:32:32;;;;;;;;;;;;;;;22.26;33.68;101135.06;2074772;28;686;-61
2022/05/24 02:33:33;;;;;;;;;;;;;;;22.25;33.26;101128.78;2074756;28;795;-61
2022/05/24 02:34:34;;;;;;;;;;;;;;;22.26;33.70;101126.97;2074644;28;859;-61
2022/05/24 02:35:34;;;;;;;;;;;;;;;22.26;33.23;101129.66;2074687;28;823;-62
2022/05/24 02:36:35;;;;;;;;;;;;;;;22.26;34.08;101135.06;2074684;28;768;-61
2022/05/24 02:37:35;;;;;;;;;;;;;;;22.25;33.64;101127.91;2074574;28;1196;-61
2022/05/24 02:38:35;;;;;;;;;;;;;;;22.25;33.30;101128.78;2074602;28;969;-61
2022/05/24 02:41:28;;;;;;;;;;;;;;;22.25;33.90;101128.78;2074645;28;966;-61
2022/05/24 02:42:15;;;;;;;;;;;;;;;22.27;33.23;101123.34;2074491;28;1961;-61
2022/05/24 02:43:15;;;;;;;;;;;;;;;22.26;33.44;101125.16;2074581;28;838;-61
2022/05/24 02:44:15;;;;;;;;;;;;;;;22.26;33.23;101125.16;2074601;28;973;-61
2022/05/24 02:45:16;;;;;;;;;;;;;;;22.25;34.12;101126.09;2074623;28;784;-61
2022/05/24 02:46:16;;;;;;;;;;;;;;;22.27;33.64;101120.63;2074557;28;978;-61
2022/05/24 02:47:17;;;;;;;;;;;;;;;22.26;34.19;101133.25;2074600;28;791;-61
2022/05/24 02:48:17;;;;;;;;;;;;;;;22.25;33.83;101123.41;2074564;28;775;-60
2022/05/24 02:49:17;;;;;;;;;;;;;;;22.24;33.37;101127.03;2074605;28;940;-60
2022/05/24 02:50:17;;;;;;;;;;;;;;;22.25;33.34;101131.50;2074580;28;804;-61
2022/05/24 02:51:18;;;;;;;;;;;;;;;22.24;33.88;101127.03;2074850;28;729;-61
2022/05/24 02:52:18;;;;;;;;;;;;;;;22.24;33.57;101127.03;2073901;28;1305;-61
2022/05/24 02:53:18;;;;;;;;;;;;;;;22.25;33.46;101127.91;2074032;28;815;-61
2022/05/24 02:54:19;;;;;;;;;;;;;;;22.26;33.64;101143.16;2074591;28;776;-61
2022/05/24 02:55:20;;;;;;;;;;;;;;;22.26;33.64;101137.75;2076129;28;816;-62
2022/05/24 02:56:21;;;;;;;;;;;;;;;22.25;33.56;101134.19;2076190;28;812;-61
2022/05/24 02:57:21;;;;;;;;;;;;;;;22.25;33.56;101128.78;2076322;28;777;-61
2022/05/24 02:58:21;;;;;;;;;;;;;;;22.25;33.50;101131.50;2076441;28;922;-61
2022/05/24 02:59:21;;;;;;;;;;;;;;;22.24;33.84;101135.13;2076076;28;982;-61
2022/05/24 03:00:23;;;;;;;;;;;;;;;22.24;33.51;101129.72;2076143;28;970;-61
2022/05/24 03:01:28;;;;;;;;;;;;;;;22.25;33.84;101133.28;2076125;28;990;-61
2022/05/24 03:02:28;;;;;;;;;;;;;;;22.25;33.58;101133.28;2076068;28;1953;-61
2022/05/24 03:03:28;;;;;;;;;;;;;;;22.23;34.23;101130.66;2075424;28;1013;-61
2022/05/24 03:04:28;;;;;;;;;;;;;;;22.24;33.66;101135.13;2075451;28;843;-61
2022/05/24 03:05:29;;;;;;;;;;;;;;;22.22;33.93;101137.00;2076222;28;982;-61
2022/05/24 03:09:33;;;;;;;;;;;;;;;22.22;33.65;101128.91;2076453;28;875;-61
2022/05/24 03:10:28;;;;;;;;;;;;;;;22.23;33.92;101124.38;2076059;28;626;-61
2022/05/24 03:14:14;;;;;;;;;;;;;;;22.23;34.41;101119.88;2076025;28;978;-61
2022/05/24 03:14:16;;;;;;;;;;;;;;;22.25;34.54;101114.41;2076170;28;717;-61
2022/05/24 03:15:17;;;;;;;;;;;;;;;22.24;34.47;101127.03;2076755;28;879;-61
2022/05/24 03:16:17;;;;;;;;;;;;;;;22.24;33.92;101123.44;2075986;28;788;-61
2022/05/24 03:17:17;;;;;;;;;;;;;;;22.22;33.71;101115.41;2075805;28;1304;-61
2022/05/24 03:18:18;;;;;;;;;;;;;;;22.23;34.05;101118.97;2075999;28;883;-61
2022/05/24 03:19:19;;;;;;;;;;;;;;;22.23;33.81;101122.56;2075959;28;780;-61
2022/05/24 03:20:20;;;;;;;;;;;;;;;22.23;34.62;101124.38;2075977;28;812;-61
2022/05/24 03:21:20;;;;;;;;;;;;;;;22.22;34.21;101126.22;2075909;28;764;-61
2022/05/24 03:22:20;;;;;;;;;;;;;;;22.22;34.15;101120.81;2076073;28;1957;-61
2022/05/24 03:23:21;;;;;;;;;;;;;;;22.22;33.72;101123.50;2075924;28;847;-61
2022/05/24 03:24:21;;;;;;;;;;;;;;;22.22;33.94;101115.41;2075934;28;852;-61
2022/05/24 03:25:21;;;;;;;;;;;;;;;22.22;34.50;101120.81;2075891;28;986;-61
2022/05/24 03:26:21;;;;;;;;;;;;;;;22.23;34.34;101117.19;2075897;28;1355;-61
2022/05/24 03:27:21;;;;;;;;;;;;;;;22.23;34.30;101119.88;2075908;28;812;-61
2022/05/24 03:28:21;;;;;;;;;;;;;;;22.23;34.41;101111.78;2076029;28;986;-62
2022/05/24 03:29:22;;;;;;;;;;;;;;;22.24;34.63;101115.34;2075918;28;844;-61
2022/05/24 03:30:22;;;;;;;;;;;;;;;22.23;33.94;101114.47;2075952;28;842;-61
2022/05/24 03:31:22;;;;;;;;;;;;;;;22.23;34.59;101119.88;2075871;28;624;-60
2022/05/24 03:32:22;;;;;;;;;;;;;;;22.23;34.34;101103.69;2075904;28;848;-61
2022/05/24 03:33:23;;;;;;;;;;;;;;;22.23;33.91;101113.59;2075832;28;1319;-61
2022/05/24 03:34:24;;;;;;;;;;;;;;;22.22;33.86;101110.03;2075878;28;974;-61
2022/05/24 03:35:24;;;;;;;;;;;;;;;22.22;33.96;101115.41;2076628;28;768;-61
2022/05/24 03:36:24;;;;;;;;;;;;;;;22.21;34.12;101117.22;2075823;28;831;-60
2022/05/24 03:37:24;;;;;;;;;;;;;;;22.21;34.12;101119.91;2075163;28;808;-61
2022/05/24 03:38:24;;;;;;;;;;;;;;;22.21;34.17;101119.91;2075213;28;982;-62
2022/05/24 03:39:24;;;;;;;;;;;;;;;22.21;34.13;101119.91;2075862;28;760;-60
2022/05/24 03:40:25;;;;;;;;;;;;;;;22.21;34.70;101119.91;2075825;28;978;-61
2022/05/24 03:41:25;;;;;;;;;;;;;;;22.22;34.70;101120.81;2075780;28;1021;-61
2022/05/24 03:42:25;;;;;;;;;;;;;;;22.21;34.10;101122.63;2075692;28;1951;-61
2022/05/24 03:43:26;;;;;;;;;;;;;;;22.23;34.81;101121.69;2075746;28;848;-61
2022/05/24 03:44:26;;;;;;;;;;;;;;;22.22;34.44;101120.81;2075799;28;895;-61
2022/05/24 03:45:27;;;;;;;;;;;;;;;22.23;34.09;101125.28;2075768;28;1044;-61
2022/05/24 03:46:27;;;;;;;;;;;;;;;22.24;34.00;101128.84;2075078;28;1212;-61
2022/05/24 03:47:27;;;;;;;;;;;;;;;22.21;33.99;101125.31;2075159;28;977;-61
2022/05/24 03:48:28;;;;;;;;;;;;;;;22.23;34.85;101127.06;2075739;28;821;-61
2022/05/24 03:49:28;;;;;;;;;;;;;;;22.23;34.92;101127.06;2075798;28;890;-61
2022/05/24 03:50:28;;;;;;;;;;;;;;;22.23;34.85;101127.06;2075698;28;1033;-61
2022/05/24 03:51:28;;;;;;;;;;;;;;;22.22;34.10;101126.22;2075727;28;789;-61
2022/05/24 03:52:28;;;;;;;;;;;;;;;22.22;34.10;101126.22;2075702;28;847;-61
2022/05/24 03:53:28;;;;;;;;;;;;;;;22.22;34.70;101131.59;2075813;28;852;-61
2022/05/24 03:54:29;;;;;;;;;;;;;;;22.21;34.78;101127.16;2077217;28;962;-61
2022/05/24 03:55:29;;;;;;;;;;;;;;;22.21;34.71;101128.00;2076126;28;950;-61
2022/05/24 03:56:29;;;;;;;;;;;;;;;22.21;34.35;101122.63;2075721;28;878;-61
2022/05/24 03:58:49;;;;;;;;;;;;;;;22.22;34.77;101126.22;2075696;28;642;-60
2022/05/24 03:59:49;;;;;;;;;;;;;;;22.23;34.99;101125.28;2075688;28;784;-61
2022/05/24 04:00:49;;;;;;;;;;;;;;;22.23;34.33;101127.97;2075798;28;772;-61
2022/05/24 04:01:49;;;;;;;;;;;;;;;22.86;33.17;101129.28;2075610;28;1894;-61
2022/05/24 04:02:50;;;;;;;;;;;;;;;23.88;31.50;101127.03;2074945;28;1434;-61
2022/05/24 04:03:50;;;;;;;;;;;;;;;24.50;30.92;101108.94;2075012;28;906;-61
2022/05/24 04:04:50;;;;;;;;;;;;;;;25.02;29.83;101123.75;2075629;28;1040;-60
2022/05/24 04:05:50;;;;;;;;;;;;;;;25.39;29.57;101121.97;2075579;28;802;-60
2022/05/24 04:06:51;;;;;;;;;;;;;;;25.74;28.89;101116.59;2075658;28;831;-61
2022/05/24 04:07:51;;;;;;;;;;;;;;;26.09;28.23;101112.16;2075579;28;998;-61
2022/05/24 04:08:52;;;;;;;;;;;;;;;26.34;27.86;101119.91;2075603;28;791;-61
2022/05/24 04:09:52;;;;;;;;;;;;;;;26.58;27.00;101123.13;2075609;28;788;-61
2022/05/24 04:11:00;;;;;;;;;;;;;;;26.83;26.47;101119.06;2075735;28;828;-61
2022/05/24 04:12:00;;;;;;;;;;;;;;;27.01;26.01;101121.72;2075372;28;847;-61
2022/05/24 04:13:01;;;;;;;;;;;;;;;27.10;25.95;101123.91;2075519;28;930;-61
2022/05/24 04:14:01;;;;;;;;;;;;;;;27.40;25.53;101120.38;2075543;28;986;-61
2022/05/24 04:15:01;;;;;;;;;;;;;;;27.47;25.48;101120.91;2075553;28;839;-61
2022/05/24 04:16:02;;;;;;;;;;;;;;;27.48;25.84;101100.94;2075505;28;1005;-61
2022/05/24 04:17:02;;;;;;;;;;;;;;;27.69;25.47;101114.22;2075339;28;1134;-61
2022/05/24 04:18:02;;;;;;;;;;;;;;;27.92;24.75;101116.44;2075506;28;1025;-61
2022/05/24 04:19:02;;;;;;;;;;;;;;;28.15;25.05;101116.94;2075452;28;1095;-61
2022/05/24 04:20:03;;;;;;;;;;;;;;;28.27;24.39;101118.00;2075516;28;859;-61
2022/05/24 04:21:03;;;;;;;;;;;;;;;28.39;24.80;101114.53;2075429;28;1347;-61
2022/05/24 04:22:03;;;;;;;;;;;;;;;28.59;23.92;101114.22;2075556;28;1963;-61
2022/05/24 04:23:04;;;;;;;;;;;;;;;28.63;23.88;101113.06;2075413;28;1041;-61
2022/05/24 04:24:04;;;;;;;;;;;;;;;28.65;23.80;101113.84;2075461;28;1029;-61
2022/05/24 04:25:05;;;;;;;;;;;;;;;28.89;23.87;101115.97;2075424;28;988;-61
2022/05/24 04:26:06;;;;;;;;;;;;;;;28.93;23.83;101107.53;2075366;28;1090;-61
2022/05/24 04:27:06;;;;;;;;;;;;;;;29.10;23.32;101111.00;2075451;28;969;-61
2022/05/24 04:28:06;;;;;;;;;;;;;;;29.15;23.65;101111.53;2074728;28;1172;-61
2022/05/24 04:29:07;;;;;;;;;;;;;;;29.26;23.02;101110.84;2074817;28;855;-61
2022/05/24 04:30:08;;;;;;;;;;;;;;;29.47;23.10;101113.13;2075393;28;858;-61
2022/05/24 04:31:08;;;;;;;;;;;;;;;29.63;22.68;101110.25;2075599;28;1262;-61
2022/05/24 04:32:09;;;;;;;;;;;;;;;29.68;23.25;101111.69;2075411;28;784;-61
2022/05/24 04:33:09;;;;;;;;;;;;;;;29.69;22.76;101104.38;2075383;28;852;-61
2022/05/24 04:34:09;;;;;;;;;;;;;;;29.75;22.41;101111.28;2075396;28;672;-61
2022/05/24 04:35:10;;;;;;;;;;;;;;;29.78;23.02;101105.59;2075359;28;800;-61
2022/05/24 04:36:10;;;;;;;;;;;;;;;29.77;22.64;101107.44;2075372;28;773;-61
2022/05/24 04:37:10;;;;;;;;;;;;;;;29.97;22.68;101108.81;2075368;28;1204;-61
2022/05/24 04:38:10;;;;;;;;;;;;;;;29.93;22.76;101099.09;2075327;28;815;-61
2022/05/24 04:39:11;;;;;;;;;;;;;;;30.00;22.41;101108.63;2075335;28;1042;-61
2022/05/24 04:40:12;;;;;;;;;;;;;;;29.99;22.05;101115.06;2075363;28;804;-61
2022/05/24 04:42:31;;;;;;;;;;;;;;;30.19;22.42;101107.31;2075311;28;1902;-61
2022/05/24 04:43:31;;;;;;;;;;;;;;;30.11;22.40;101104.25;2075349;28;990;-61
2022/05/24 04:44:31;;;;;;;;;;;;;;;30.03;22.18;101100.19;2075516;28;773;-61
2022/05/24 04:45:31;;;;;;;;;;;;;;;30.23;22.39;101100.66;2076716;28;990;-61
2022/05/24 04:47:07;;;;;;;;;;;;;;;30.24;22.46;101107.00;2074619;28;887;-61
2022/05/24 04:47:51;;;;;;;;;;;;;;;30.37;22.45;101112.47;2075492;28;1154;-61
2022/05/24 04:48:51;;;;;;;;;;;;;;;30.42;21.94;101105.66;2075699;28;1053;-61
2022/05/24 04:49:54;;;;;;;;;;;;;;;30.39;22.20;101105.88;2075255;28;1085;-61
2022/05/24 04:50:55;;;;;;;;;;;;;;;30.59;22.00;101103.63;2074524;28;1319;-61
2022/05/24 04:51:55;;;;;;;;;;;;;;;30.85;21.88;101107.19;2074647;28;781;-61
2022/05/24 04:52:55;;;;;;;;;;;;;;;30.82;21.99;101112.88;2075229;28;879;-61
2022/05/24 04:53:55;;;;;;;;;;;;;;;30.87;21.65;101107.94;2075247;28;974;-61
2022/05/24 04:54:56;;;;;;;;;;;;;;;30.97;21.78;101108.13;2075215;28;1039;-61
2022/05/24 04:55:56;;;;;;;;;;;;;;;30.89;21.91;101108.72;2075201;28;815;-61
2022/05/24 04:56:56;;;;;;;;;;;;;;;30.95;21.56;101110.09;2075239;28;792;-61
2022/05/24 04:57:56;;;;;;;;;;;;;;;31.05;22.17;101104.84;2075200;28;1110;-61
2022/05/24 04:58:57;;;;;;;;;;;;;;;31.19;21.32;101107.47;2075211;28;753;-61
2022/05/24 04:59:57;;;;;;;;;;;;;;;31.30;21.58;101112.13;2075138;28;851;-61
2022/05/24 05:00:57;;;;;;;;;;;;;;;31.22;21.73;101110.94;2075205;28;1033;-62
2022/05/24 05:01:57;;;;;;;;;;;;;;;31.37;21.22;101104.31;2075080;28;1902;-61
2022/05/24 05:02:57;;;;;;;;;;;;;;;31.28;21.22;101110.47;2075155;28;1042;-61
2022/05/24 05:03:57;;;;;;;;;;;;;;;31.36;21.16;101102.56;2075207;28;1045;-62
2022/05/24 05:04:58;;;;;;;;;;;;;;;31.52;20.94;101104.13;2075245;28;746;-61
2022/05/24 05:05:58;;;;;;;;;;;;;;;31.49;21.04;101108.84;2075128;28;1044;-61
2022/05/24 05:06:58;;;;;;;;;;;;;;;31.37;21.39;101107.03;2077322;28;1017;-61
2022/05/24 05:07:58;;;;;;;;;;;;;;;31.48;21.29;101104.38;2075117;28;796;-62
2022/05/24 05:08:58;;;;;;;;;;;;;;;31.37;21.41;101103.44;2075104;28;914;-61
2022/05/24 05:09:59;;;;;;;;;;;;;;;31.42;21.14;101109.44;2075089;28;981;-61
2022/05/24 05:10:59;;;;;;;;;;;;;;;31.51;20.85;101095.03;2075091;28;1029;-61
2022/05/24 05:12:07;;;;;;;;;;;;;;;31.66;20.63;101093.00;2075124;28;780;-61
2022/05/24 05:13:07;;;;;;;;;;;;;;;31.68;20.69;101095.59;2075115;28;852;-61
2022/05/24 05:14:08;;;;;;;;;;;;;;;31.65;20.71;101092.09;2075090;28;781;-61
2022/05/24 05:15:09;;;;;;;;;;;;;;;31.38;21.02;101086.03;2075078;28;895;-61
2022/05/24 05:16:09;;;;;;;;;;;;;;;31.62;21.01;101083.28;2075080;28;784;-62
2022/05/24 05:17:10;;;;;;;;;;;;;;;31.56;20.51;101087.34;2074443;28;1070;-61
2022/05/24 05:18:11;;;;;;;;;;;;;;;31.67;20.96;101091.13;2074985;28;965;-61
2022/05/24 05:19:12;;;;;;;;;;;;;;;31.77;20.29;101093.06;2075057;28;986;-61
2022/05/24 05:20:12;;;;;;;;;;;;;;;31.84;20.74;101090.72;2075049;28;847;-61
2022/05/24 05:21:13;;;;;;;;;;;;;;;31.83;20.53;101099.03;2075066;28;773;-61
2022/05/24 05:22:14;;;;;;;;;;;;;;;31.66;20.84;101093.00;2075238;28;1914;-61
2022/05/24 05:23:15;;;;;;;;;;;;;;;31.73;21.02;101097.03;2075012;28;867;-61
2022/05/24 05:24:16;;;;;;;;;;;;;;;31.73;20.34;101099.78;2075145;28;745;-60
2022/05/24 05:25:16;;;;;;;;;;;;;;;31.84;20.86;101101.66;2075043;28;978;-61
2022/05/24 05:26:16;;;;;;;;;;;;;;;31.87;20.50;101106.03;2074965;28;619;-61
2022/05/24 05:27:16;;;;;;;;;;;;;;;31.79;20.30;101093.84;2075095;28;812;-61
2022/05/24 05:28:17;;;;;;;;;;;;;;;31.79;20.53;101096.56;2074960;28;1029;-61
2022/05/24 05:31:16;;;;;;;;;;;;;;;31.82;20.57;101100.03;2075071;28;990;-61
2022/05/24 05:31:56;;;;;;;;;;;;;;;31.70;20.75;101097.25;2074910;28;1384;-61
2022/05/24 05:32:57;;;;;;;;;;;;;;;31.69;20.85;101091.88;2074957;28;848;-61
2022/05/24 05:33:58;;;;;;;;;;;;;;;31.86;20.55;101091.47;2074951;28;1146;-61
2022/05/24 05:34:58;;;;;;;;;;;;;;;31.85;20.56;101097.06;2075738;28;820;-61
2022/05/24 05:35:59;;;;;;;;;;;;;;;31.92;20.05;101098.31;2074293;28;1408;-62
2022/05/24 05:37:03;;;;;;;;;;;;;;;31.95;20.33;101098.09;2074299;28;1689;-61
2022/05/24 05:38:04;;;;;;;;;;;;;;;31.79;20.31;101091.09;2075306;28;1063;-61
2022/05/24 05:39:04;;;;;;;;;;;;;;;31.86;20.49;101087.84;2075485;28;1048;-61